• Join FlightAware (Why Join?)
  • Login
  • US Flag 
11:46AM EDT


 

Airport Tracker/Info


-or-


 

Live Flight TrackerFlight Track Log ✈ ASQ5740 ✈ 21-Jul-2013 ✈ KORD - KGSO

Flight Track Log - Related Links

Times and Time Zones

All times are in EDT time to prevent confusion due to time zone crossing. See the ASQ5740 flight status page for this flight to view local times or setup timezone preferences in your user account.

Time Position Orientation Groundspeed Altitude Reporting Facility
EDT Latitude Longitude Course Direction KTS MPH feet Rate Location/Type
01:57PM 41.9167 -87.9167 171° South 191 220 2,700  Level Chicago TRACON
01:58PM 41.8500 -87.9167 180° South 252 290 4,600 2,160 Climbing Chicago TRACON
01:59PM 41.7983 -87.9150 179° South 250 288 6,400 2,340 Climbing Chicago Center
02:00PM 41.7112 -87.4907 153° Southeast  Level Estimated
02:00PM 41.7344 -87.8539 144° Southeast 278 320 8,700  Level Chicago Center
02:01PM 41.6118 -87.5260 195° South  Level FlightAware Approximate
02:01PM 41.6658 -87.7914 146° Southeast 295 339 10,800  Level Chicago Center
02:02PM 41.5449 -87.4217 166° South  Level Estimated
02:02PM 41.5936 -87.7272 146° Southeast 308 354 12,900  Level Chicago Center
02:03PM 41.4779 -87.3176 171° South  Level Estimated
02:03PM 41.5206 -87.6578 145° Southeast 318 366 14,700  Level Chicago Center
02:04PM 41.4406 -87.5861 146° Southeast 338 389 15,600 960 Climbing Chicago Center
02:05PM 41.3403 -87.5567 168° South 367 422 16,700 1,020 Climbing Chicago Center
02:06PM 41.2156 -87.5353 173° South 373 429 17,800 900 Climbing Chicago Center
02:07PM 41.1086 -87.5081 169° South 387 445 18,600 720 Climbing Chicago Center
02:08PM 40.9992 -87.4769 168° South 398 458 19,400 720 Climbing Chicago Center
02:09PM 40.8894 -87.4475 169° South 401 461 20,200 720 Climbing Chicago Center
02:10PM 40.7808 -87.4192 169° South 400 460 21,000 840 Climbing Chicago Center
02:11PM 40.6514 -87.3861 169° South 397 457 22,000 780 Climbing Chicago Center
02:13PM 40.5433 -87.3567 168° South 398 458 22,700 660 Climbing Chicago Center
02:14PM 40.4411 -87.3233 166° South 404 465 23,400 720 Climbing Chicago Center
02:15PM 40.3489 -87.2367 144° Southeast 408 470 24,200 660 Climbing Chicago Center
02:16PM 40.2550 -87.1503 145° Southeast 413 475 24,800 600 Climbing Chicago Center
02:17PM 40.1419 -87.0444 144° Southeast 417 480 25,500 600 Climbing Chicago Center
02:17PM 40.0633 -86.9739 146° Southeast 420 483 26,000 540 Climbing Indianapolis Center
02:19PM 39.9686 -86.8861 145° Southeast 421 484 26,600 480 Climbing Indianapolis Center
02:20PM 39.8706 -86.8061 148° Southeast 418 481 27,100 480 Climbing Indianapolis Center
02:21PM 39.7722 -86.7256 148° Southeast 421 484 27,600 480 Climbing Indianapolis Center
02:22PM 39.6889 -86.6203 136° Southeast 439 505 28,100 480 Climbing Indianapolis Center
02:23PM 39.6164 -86.4597 120° Southeast 439 505 28,700 420 Climbing Indianapolis Center
02:24PM 39.5422 -86.3378 128° Southeast 440 506 29,000 120 Climbing Indianapolis Center
02:25PM 39.4683 -86.2119 127° Southeast 444 511 29,000  Level Indianapolis Center
02:26PM 39.3911 -86.0836 128° Southeast 455 524 29,000  Level Indianapolis Center
02:27PM 39.2967 -85.9269 128° Southeast 463 533 29,000  Level Indianapolis Center
02:28PM 39.2175 -85.7950 128° Southeast 466 536 29,000  Level Indianapolis Center
02:29PM 39.1369 -85.6633 128° Southeast 468 539 29,000  Level Indianapolis Center
02:30PM 39.0558 -85.5319 128° Southeast 471 542 29,000  Level Indianapolis Center
02:31PM 38.9756 -85.4003 128° Southeast 470 541 29,000  Level Indianapolis Center
02:32PM 38.8944 -85.2692 128° Southeast 470 541 29,000  Level Indianapolis Center
02:33PM 38.7969 -85.1119 128° Southeast 473 544 29,000  Level Indianapolis Center
02:34PM 38.7164 -84.9808 128° Southeast 471 542 29,000  Level Indianapolis Center
02:35PM 38.6331 -84.8481 129° Southeast 466 536 29,000  Level Indianapolis Center
02:36PM 38.5514 -84.7183 129° Southeast 469 540 29,000  Level Indianapolis Center
02:37PM 38.4700 -84.5894 129° Southeast 467 537 29,000  Level Indianapolis Center
02:38PM 38.3878 -84.4594 129° Southeast 469 540 29,000  Level Indianapolis Center
02:39PM 38.2922 -84.3089 129° Southeast 468 539 29,000  Level Indianapolis Center
02:40PM 38.2111 -84.1797 129° Southeast 467 537 29,000  Level Indianapolis Center
02:41PM 38.1303 -84.0536 129° Southeast 461 531 29,000  Level Indianapolis Center
02:42PM 38.0489 -83.9292 130° Southeast 458 527 29,000  Level Indianapolis Center
02:43PM 37.9614 -83.8111 133° Southeast 460 529 29,000  Level Indianapolis Center
02:44PM 37.8606 -83.7175 144° Southeast 450 518 29,000  Level Indianapolis Center
02:45PM 37.7581 -83.6272 145° Southeast 449 517 29,000  Level Indianapolis Center
02:46PM 37.6375 -83.5225 145° Southeast 449 517 29,000  Level Indianapolis Center
02:47PM 37.5603 -83.3981 128° Southeast 457 526 29,000  Level Indianapolis Center
02:48PM 37.4881 -83.2661 125° Southeast 455 524 29,000 -300 Level Indianapolis Center
02:49PM 37.4139 -83.1322 125° Southeast 461 531 28,500 -600 Descending Indianapolis Center
02:50PM 37.3383 -82.9947 125° Southeast 471 542 27,800 -720 Descending Indianapolis Center
02:51PM 37.2614 -82.8550 125° Southeast 480 552 27,100 -420 Descending Indianapolis Center
02:53PM 37.1839 -82.7153 125° Southeast 481 554 27,000 -60 Descending Indianapolis Center
02:54PM 37.1075 -82.5781 125° Southeast 476 548 27,000  Level Indianapolis Center
02:55PM 37.0186 -82.4211 125° Southeast 470 541 27,000  Level Indianapolis Center
02:56PM 36.9436 -82.2878 125° Southeast 467 537 27,000 -60 Level Indianapolis Center
02:57PM 36.8683 -82.1558 125° Southeast 464 534 26,900 -600 Descending Indianapolis Center
02:58PM 36.7928 -82.0258 126° Southeast 461 531 25,800 -960 Descending Indianapolis Center
02:59PM 36.7158 -81.9000 127° Southeast 456 525 25,000 -600 Descending Indianapolis Center
03:00PM 36.6406 -81.7772 127° Southeast 447 514 24,600 -540 Descending Indianapolis Center
03:01PM 36.5647 -81.6525 127° Southeast 449 517 24,000 -360 Descending Indianapolis Center
03:02PM 36.4756 -81.5089 128° Southeast 448 516 23,900 -1,020 Descending Indianapolis Center
03:03PM 36.4033 -81.3783 124° Southeast 463 533 22,000 -1,500 Descending Indianapolis Center
03:04PM 36.3842 -81.2169 98° East 467 537 20,800 -1,200 Descending Indianapolis Center
03:05PM 36.3761 -81.0608 94° East 450 518 19,500 -1,560 Descending Indianapolis Center
03:06PM 36.3658 -80.8753 94° East 440 506 17,500 -1,740 Descending Atlanta Center
03:07PM 36.3597 -80.7233 93° East 440 506 15,800 -1,620 Descending Atlanta Center
03:08PM 36.3519 -80.5922 94° East 435 501 14,300 -1,620 Descending Atlanta Center
03:09PM 36.3108 -80.4650 112° Southeast 402 463 12,600 -1,680 Descending Atlanta Center
03:10PM 36.2494 -80.3622 127° Southeast 362 417 11,000 -1,320 Descending Atlanta Center
03:11PM 36.1850 -80.3008 142° Southeast 321 369 10,000 -1,200 Descending Atlanta Center
03:12PM 36.1106 -80.2531 153° Southeast 296 341 8,600 -1,020 Descending Atlanta Center
03:13PM 36.0422 -80.2047 150° Southeast 296 341 8,000 -300 Descending Atlanta Center
03:14PM 36.0206 -80.1186 107° East 273 314 8,000  Level Atlanta Center
03:15PM 35.9906 -80.0275 112° Southeast 273 314 8,000  Level Atlanta Center
03:17PM 36.1000 -79.9333 109° East  Level FlightAware Approximate
03:24PM 36.1013 -79.9411 109° East  Level Estimated
03:25PM 36.1000 -79.9333 109° East  Level FlightAware Approximate
03:26PM 36.1013 -79.9411 109° East  Level Estimated
03:27PM 36.1000 -79.9333 109° East  Level FlightAware Approximate
03:28PM 36.1013 -79.9411 109° East  Level Estimated
03:29PM 36.1000 -79.9333 109° East  Level FlightAware Approximate
03:30PM 36.1013 -79.9411 109° East  Level Estimated
03:31PM 36.1000 -79.9333 109° East  Level FlightAware Approximate
03:32PM 36.1013 -79.9411 109° East  Level Estimated